Onondaga, Michigan
Current Conditions -  °F | °C
As of 10:12 PM on Friday 21 Nov 2014 (Local Time) from KTEW Reporting Station
Clear Clear  
Wind Chill: 13°   Ceiling: Unl
Heat Index: 19°   Visibility: 10mi
Dew Point: 12°   Wind: 5mph
Humidity: 74%   Direction: 170°S
Pressure: 30.31"   Gusts: NA
Location:  42.44°N, 84.56°W
Report Text: KTEW 220312Z AUTO 17004KT 10SM CLR M07/M11 A3031 RMK AO2 T10711111
Loading
Personal Weather Stations






























Interactive Weather Map New forecast layout! Learn more

10-Day Weather Forecast

Advertisements
Track Severe Weather on mobile